Terminal Aerodrome Forecast
Issued by NWS Charleston, WV

Current Version | Previous Version | Graphics & Text | Print | Product List | Glossary On
Versions: 1 2 3 4 5 6 7 8 9 10 11 12 13 14 15 16 17 18 19 20 21 22 23 24 25 26 27
769
FTUS41 KRLX 250540
TAFPKB
TAF
KPKB 250540Z 2506/2606 17010G19KT P6SM BKN080
     FM250700 20006KT 5SM -TSRA BKN050CB
      TEMPO 2507/2509 22019G40KT 2SM +TSRA OVC025CB
     FM250900 21006KT 5SM SHRA OVC025
     FM251200 26010G26KT P6SM BKN035
     FM252200 26011G21KT P6SM BKN035=

USA.gov is the U.S. government's official web portal to all federal, state and local government web resources and services.